sensor_id;sensor_type;location;lat;lon;timestamp;temperature;humidity
11107;DHT22;5607;48.302;14.294;2022-07-24T00:02:17;23.80;99.90
11107;DHT22;5607;48.302;14.294;2022-07-24T00:05:05;23.80;99.90
11107;DHT22;5607;48.302;14.294;2022-07-24T00:07:52;23.70;99.90
11107;DHT22;5607;48.302;14.294;2022-07-24T00:10:38;23.60;99.90
11107;DHT22;5607;48.302;14.294;2022-07-24T00:13:24;23.60;99.90
11107;DHT22;5607;48.302;14.294;2022-07-24T00:16:10;23.50;99.90
11107;DHT22;5607;48.302;14.294;2022-07-24T00:18:57;23.50;99.90
11107;DHT22;5607;48.302;14.294;2022-07-24T00:21:44;23.40;99.90
11107;DHT22;5607;48.302;14.294;2022-07-24T00:24:30;23.40;99.90
11107;DHT22;5607;48.302;14.294;2022-07-24T00:27:16;23.40;99.90
11107;DHT22;5607;48.302;14.294;2022-07-24T00:30:03;23.40;99.90
11107;DHT22;5607;48.302;14.294;2022-07-24T00:32:49;23.30;99.90
11107;DHT22;5607;48.302;14.294;2022-07-24T00:35:35;23.20;99.90
11107;DHT22;5607;48.302;14.294;2022-07-24T00:38:22;23.20;99.90
11107;DHT22;5607;48.302;14.294;2022-07-24T00:41:08;23.20;99.90
11107;DHT22;5607;48.302;14.294;2022-07-24T00:44:08;23.20;99.90
11107;DHT22;5607;48.302;14.294;2022-07-24T00:46:55;23.20;99.90
11107;DHT22;5607;48.302;14.294;2022-07-24T00:49:41;23.20;99.90
11107;DHT22;5607;48.302;14.294;2022-07-24T00:52:28;23.10;99.90
11107;DHT22;5607;48.302;14.294;2022-07-24T00:55:14;22.90;99.90
11107;DHT22;5607;48.302;14.294;2022-07-24T00:58:02;22.90;99.90
11107;DHT22;5607;48.302;14.294;2022-07-24T01:00:49;22.90;1.40
11107;DHT22;5607;48.302;14.294;2022-07-24T01:03:38;23.10;99.90
11107;DHT22;5607;48.302;14.294;2022-07-24T01:06:26;23.00;99.90
11107;DHT22;5607;48.302;14.294;2022-07-24T01:09:13;23.00;99.90
11107;DHT22;5607;48.302;14.294;2022-07-24T01:11:59;23.10;99.90
11107;DHT22;5607;48.302;14.294;2022-07-24T01:14:45;23.10;99.90
11107;DHT22;5607;48.302;14.294;2022-07-24T01:17:33;23.20;99.90
11107;DHT22;5607;48.302;14.294;2022-07-24T01:20:20;23.20;99.90
11107;DHT22;5607;48.302;14.294;2022-07-24T01:23:06;23.10;99.90
11107;DHT22;5607;48.302;14.294;2022-07-24T01:25:52;23.20;99.90
11107;DHT22;5607;48.302;14.294;2022-07-24T01:28:38;23.10;99.90
11107;DHT22;5607;48.302;14.294;2022-07-24T01:31:25;23.20;99.90
11107;DHT22;5607;48.302;14.294;2022-07-24T01:34:11;23.20;99.90
11107;DHT22;5607;48.302;14.294;2022-07-24T01:36:58;23.10;99.90
11107;DHT22;5607;48.302;14.294;2022-07-24T01:39:44;23.20;99.90
11107;DHT22;5607;48.302;14.294;2022-07-24T01:42:30;23.20;99.90
11107;DHT22;5607;48.302;14.294;2022-07-24T01:45:17;23.10;99.90
11107;DHT22;5607;48.302;14.294;2022-07-24T01:48:03;23.10;99.90
11107;DHT22;5607;48.302;14.294;2022-07-24T01:50:50;23.10;99.90
11107;DHT22;5607;48.302;14.294;2022-07-24T01:53:36;23.00;1.00
11107;DHT22;5607;48.302;14.294;2022-07-24T01:56:23;23.00;99.90
11107;DHT22;5607;48.302;14.294;2022-07-24T01:59:09;22.90;1.00
11107;DHT22;5607;48.302;14.294;2022-07-24T02:01:55;23.00;99.90
11107;DHT22;5607;48.302;14.294;2022-07-24T02:04:41;23.00;99.90
11107;DHT22;5607;48.302;14.294;2022-07-24T02:07:30;22.80;1.00
11107;DHT22;5607;48.302;14.294;2022-07-24T02:10:19;22.80;1.00
11107;DHT22;5607;48.302;14.294;2022-07-24T02:16:12;22.80;1.00
11107;DHT22;5607;48.302;14.294;2022-07-24T02:18:58;22.70;1.00
11107;DHT22;5607;48.302;14.294;2022-07-24T02:21:44;22.70;1.00
11107;DHT22;5607;48.302;14.294;2022-07-24T02:24:31;22.70;1.00
11107;DHT22;5607;48.302;14.294;2022-07-24T02:27:17;22.70;1.00
11107;DHT22;5607;48.302;14.294;2022-07-24T02:30:04;22.60;1.00
11107;DHT22;5607;48.302;14.294;2022-07-24T02:32:51;22.50;1.00
11107;DHT22;5607;48.302;14.294;2022-07-24T02:35:37;22.50;1.00
11107;DHT22;5607;48.302;14.294;2022-07-24T02:38:24;22.50;1.00
11107;DHT22;5607;48.302;14.294;2022-07-24T02:41:10;22.30;1.00
11107;DHT22;5607;48.302;14.294;2022-07-24T02:43:56;22.30;1.00
11107;DHT22;5607;48.302;14.294;2022-07-24T02:46:42;22.30;1.00
11107;DHT22;5607;48.302;14.294;2022-07-24T02:49:29;22.30;1.00
11107;DHT22;5607;48.302;14.294;2022-07-24T02:52:15;22.30;1.00
11107;DHT22;5607;48.302;14.294;2022-07-24T02:55:01;22.30;1.00
11107;DHT22;5607;48.302;14.294;2022-07-24T02:57:48;22.30;1.00
11107;DHT22;5607;48.302;14.294;2022-07-24T03:00:34;22.30;1.00
11107;DHT22;5607;48.302;14.294;2022-07-24T03:03:20;22.30;1.00
11107;DHT22;5607;48.302;14.294;2022-07-24T03:06:06;22.30;1.00
11107;DHT22;5607;48.302;14.294;2022-07-24T03:08:53;22.30;1.00
11107;DHT22;5607;48.302;14.294;2022-07-24T03:11:39;22.50;1.00
11107;DHT22;5607;48.302;14.294;2022-07-24T03:14:25;22.50;1.00
11107;DHT22;5607;48.302;14.294;2022-07-24T03:17:12;22.50;1.00
11107;DHT22;5607;48.302;14.294;2022-07-24T03:19:58;22.50;1.00
11107;DHT22;5607;48.302;14.294;2022-07-24T03:22:45;22.50;1.00
11107;DHT22;5607;48.302;14.294;2022-07-24T03:25:31;22.50;1.00
11107;DHT22;5607;48.302;14.294;2022-07-24T03:28:17;22.50;1.00
11107;DHT22;5607;48.302;14.294;2022-07-24T03:31:03;22.40;1.00
11107;DHT22;5607;48.302;14.294;2022-07-24T03:33:50;22.40;1.00
11107;DHT22;5607;48.302;14.294;2022-07-24T03:36:36;22.50;1.00
11107;DHT22;5607;48.302;14.294;2022-07-24T03:39:22;22.40;1.00
11107;DHT22;5607;48.302;14.294;2022-07-24T03:42:09;22.40;1.00
11107;DHT22;5607;48.302;14.294;2022-07-24T03:44:55;22.30;1.00
11107;DHT22;5607;48.302;14.294;2022-07-24T03:47:41;22.30;1.00
11107;DHT22;5607;48.302;14.294;2022-07-24T03:50:29;22.30;1.00
11107;DHT22;5607;48.302;14.294;2022-07-24T03:56:38;22.30;1.00
11107;DHT22;5607;48.302;14.294;2022-07-24T04:02:48;22.30;1.00
11107;DHT22;5607;48.302;14.294;2022-07-24T04:05:35;22.30;1.00
11107;DHT22;5607;48.302;14.294;2022-07-24T04:08:21;22.30;1.00
11107;DHT22;5607;48.302;14.294;2022-07-24T04:11:07;22.40;1.00
11107;DHT22;5607;48.302;14.294;2022-07-24T04:13:54;22.40;1.00
11107;DHT22;5607;48.302;14.294;2022-07-24T04:16:40;22.40;1.00
11107;DHT22;5607;48.302;14.294;2022-07-24T04:19:26;22.50;1.00
11107;DHT22;5607;48.302;14.294;2022-07-24T04:22:12;22.50;1.00
11107;DHT22;5607;48.302;14.294;2022-07-24T04:25:00;22.50;1.00
11107;DHT22;5607;48.302;14.294;2022-07-24T04:27:46;22.50;1.00
11107;DHT22;5607;48.302;14.294;2022-07-24T04:30:33;22.50;1.00
11107;DHT22;5607;48.302;14.294;2022-07-24T04:33:20;22.40;1.00
11107;DHT22;5607;48.302;14.294;2022-07-24T04:36:06;22.30;1.00
11107;DHT22;5607;48.302;14.294;2022-07-24T04:38:53;22.20;1.00
11107;DHT22;5607;48.302;14.294;2022-07-24T04:41:40;22.10;1.00
11107;DHT22;5607;48.302;14.294;2022-07-24T04:44:26;22.20;1.00
11107;DHT22;5607;48.302;14.294;2022-07-24T04:47:13;22.20;1.00
11107;DHT22;5607;48.302;14.294;2022-07-24T04:49:59;22.30;1.00
11107;DHT22;5607;48.302;14.294;2022-07-24T04:52:45;22.30;1.00
11107;DHT22;5607;48.302;14.294;2022-07-24T04:55:32;22.20;1.00
11107;DHT22;5607;48.302;14.294;2022-07-24T04:58:18;22.30;1.00
11107;DHT22;5607;48.302;14.294;2022-07-24T05:01:04;22.30;1.00
11107;DHT22;5607;48.302;14.294;2022-07-24T05:03:51;22.40;1.00
11107;DHT22;5607;48.302;14.294;2022-07-24T05:06:37;22.40;1.00
11107;DHT22;5607;48.302;14.294;2022-07-24T05:09:23;22.30;1.00
11107;DHT22;5607;48.302;14.294;2022-07-24T05:12:09;22.20;1.00
11107;DHT22;5607;48.302;14.294;2022-07-24T05:14:56;22.30;1.00
11107;DHT22;5607;48.302;14.294;2022-07-24T05:17:42;22.30;1.00
11107;DHT22;5607;48.302;14.294;2022-07-24T05:20:28;22.40;1.00
11107;DHT22;5607;48.302;14.294;2022-07-24T05:23:15;22.40;1.00
11107;DHT22;5607;48.302;14.294;2022-07-24T05:26:02;22.60;1.00
11107;DHT22;5607;48.302;14.294;2022-07-24T05:28:48;22.70;1.00
11107;DHT22;5607;48.302;14.294;2022-07-24T05:31:35;22.90;1.00
11107;DHT22;5607;48.302;14.294;2022-07-24T05:34:25;23.00;1.00
11107;DHT22;5607;48.302;14.294;2022-07-24T05:37:13;23.00;1.00
11107;DHT22;5607;48.302;14.294;2022-07-24T05:39:59;23.00;1.00
11107;DHT22;5607;48.302;14.294;2022-07-24T05:45:53;23.20;1.00
11107;DHT22;5607;48.302;14.294;2022-07-24T05:48:41;23.10;1.00
11107;DHT22;5607;48.302;14.294;2022-07-24T05:51:27;23.20;1.00
11107;DHT22;5607;48.302;14.294;2022-07-24T05:54:13;23.20;1.00
11107;DHT22;5607;48.302;14.294;2022-07-24T05:57:00;23.30;1.00
11107;DHT22;5607;48.302;14.294;2022-07-24T05:59:46;23.20;1.00
11107;DHT22;5607;48.302;14.294;2022-07-24T06:02:32;23.10;1.00
11107;DHT22;5607;48.302;14.294;2022-07-24T06:05:18;23.10;1.00
11107;DHT22;5607;48.302;14.294;2022-07-24T06:08:05;23.10;1.00
11107;DHT22;5607;48.302;14.294;2022-07-24T06:10:51;23.10;1.00
11107;DHT22;5607;48.302;14.294;2022-07-24T06:13:37;23.00;1.00
11107;DHT22;5607;48.302;14.294;2022-07-24T06:16:23;22.80;1.00
11107;DHT22;5607;48.302;14.294;2022-07-24T06:19:10;22.80;1.00
11107;DHT22;5607;48.302;14.294;2022-07-24T06:21:56;22.90;1.00
11107;DHT22;5607;48.302;14.294;2022-07-24T06:24:43;23.00;1.00
11107;DHT22;5607;48.302;14.294;2022-07-24T06:27:29;23.20;1.00
11107;DHT22;5607;48.302;14.294;2022-07-24T06:30:17;23.30;1.00
11107;DHT22;5607;48.302;14.294;2022-07-24T06:33:03;23.50;1.00
11107;DHT22;5607;48.302;14.294;2022-07-24T06:35:49;23.70;1.00
11107;DHT22;5607;48.302;14.294;2022-07-24T06:38:36;23.80;1.00
11107;DHT22;5607;48.302;14.294;2022-07-24T06:41:22;23.90;1.00
11107;DHT22;5607;48.302;14.294;2022-07-24T06:44:09;24.20;1.00
11107;DHT22;5607;48.302;14.294;2022-07-24T06:46:55;24.50;1.00
11107;DHT22;5607;48.302;14.294;2022-07-24T06:53:05;25.00;99.90
11107;DHT22;5607;48.302;14.294;2022-07-24T06:55:51;25.10;99.90
11107;DHT22;5607;48.302;14.294;2022-07-24T06:58:41;25.20;99.90
11107;DHT22;5607;48.302;14.294;2022-07-24T07:01:27;25.20;99.90
11107;DHT22;5607;48.302;14.294;2022-07-24T07:04:13;25.20;99.90
11107;DHT22;5607;48.302;14.294;2022-07-24T07:07:00;25.10;99.90
11107;DHT22;5607;48.302;14.294;2022-07-24T07:09:46;25.10;99.90
11107;DHT22;5607;48.302;14.294;2022-07-24T07:12:32;25.30;99.90
11107;DHT22;5607;48.302;14.294;2022-07-24T07:15:20;25.70;99.90
11107;DHT22;5607;48.302;14.294;2022-07-24T07:18:07;25.90;99.90
11107;DHT22;5607;48.302;14.294;2022-07-24T07:20:53;26.10;99.90
11107;DHT22;5607;48.302;14.294;2022-07-24T07:23:40;26.20;99.90
11107;DHT22;5607;48.302;14.294;2022-07-24T07:26:26;26.40;99.90
11107;DHT22;5607;48.302;14.294;2022-07-24T07:29:12;26.50;99.90
11107;DHT22;5607;48.302;14.294;2022-07-24T07:31:59;26.50;99.90
11107;DHT22;5607;48.302;14.294;2022-07-24T07:34:45;26.70;99.90
11107;DHT22;5607;48.302;14.294;2022-07-24T07:37:31;26.90;99.90
11107;DHT22;5607;48.302;14.294;2022-07-24T07:40:18;27.00;99.90
11107;DHT22;5607;48.302;14.294;2022-07-24T07:43:05;27.10;99.90
11107;DHT22;5607;48.302;14.294;2022-07-24T07:45:51;26.90;99.90
11107;DHT22;5607;48.302;14.294;2022-07-24T07:48:39;26.70;99.90
11107;DHT22;5607;48.302;14.294;2022-07-24T07:51:25;26.60;99.90
11107;DHT22;5607;48.302;14.294;2022-07-24T07:54:12;26.70;99.90
11107;DHT22;5607;48.302;14.294;2022-07-24T08:00:22;27.10;99.90
11107;DHT22;5607;48.302;14.294;2022-07-24T08:03:09;27.40;99.90
11107;DHT22;5607;48.302;14.294;2022-07-24T08:09:00;27.70;99.90
11107;DHT22;5607;48.302;14.294;2022-07-24T08:11:46;27.80;99.90
11107;DHT22;5607;48.302;14.294;2022-07-24T08:14:32;27.90;99.90
11107;DHT22;5607;48.302;14.294;2022-07-24T08:17:19;28.00;99.90
11107;DHT22;5607;48.302;14.294;2022-07-24T08:20:05;28.00;99.90
11107;DHT22;5607;48.302;14.294;2022-07-24T08:22:51;28.10;99.90
11107;DHT22;5607;48.302;14.294;2022-07-24T08:25:38;28.10;99.90
11107;DHT22;5607;48.302;14.294;2022-07-24T08:28:24;28.30;99.90
11107;DHT22;5607;48.302;14.294;2022-07-24T08:31:10;28.50;99.90
11107;DHT22;5607;48.302;14.294;2022-07-24T08:33:57;28.50;99.90
11107;DHT22;5607;48.302;14.294;2022-07-24T08:36:43;28.60;99.90
11107;DHT22;5607;48.302;14.294;2022-07-24T08:39:31;28.70;99.90
11107;DHT22;5607;48.302;14.294;2022-07-24T08:42:17;28.70;99.90
11107;DHT22;5607;48.302;14.294;2022-07-24T08:45:04;28.50;99.90
11107;DHT22;5607;48.302;14.294;2022-07-24T08:47:51;28.60;99.90
11107;DHT22;5607;48.302;14.294;2022-07-24T08:50:38;28.70;99.90
11107;DHT22;5607;48.302;14.294;2022-07-24T08:53:25;28.70;99.90
11107;DHT22;5607;48.302;14.294;2022-07-24T08:56:11;28.70;99.90
11107;DHT22;5607;48.302;14.294;2022-07-24T08:58:57;28.90;99.90
11107;DHT22;5607;48.302;14.294;2022-07-24T09:01:44;29.00;99.90
11107;DHT22;5607;48.302;14.294;2022-07-24T09:04:34;29.00;99.90
11107;DHT22;5607;48.302;14.294;2022-07-24T09:07:21;28.80;99.90
11107;DHT22;5607;48.302;14.294;2022-07-24T09:10:16;28.50;99.90
11107;DHT22;5607;48.302;14.294;2022-07-24T09:13:12;28.30;99.90
11107;DHT22;5607;48.302;14.294;2022-07-24T09:15:59;28.40;99.90
11107;DHT22;5607;48.302;14.294;2022-07-24T09:18:46;28.70;99.90
11107;DHT22;5607;48.302;14.294;2022-07-24T09:21:33;28.90;99.90
11107;DHT22;5607;48.302;14.294;2022-07-24T09:24:20;29.10;99.90
11107;DHT22;5607;48.302;14.294;2022-07-24T09:27:07;29.30;99.90
11107;DHT22;5607;48.302;14.294;2022-07-24T09:29:59;29.40;99.90
11107;DHT22;5607;48.302;14.294;2022-07-24T09:32:50;29.20;99.90
11107;DHT22;5607;48.302;14.294;2022-07-24T09:35:37;28.80;99.90
11107;DHT22;5607;48.302;14.294;2022-07-24T09:38:25;28.70;99.90
11107;DHT22;5607;48.302;14.294;2022-07-24T09:41:18;28.60;99.90
11107;DHT22;5607;48.302;14.294;2022-07-24T09:44:04;28.50;99.90
11107;DHT22;5607;48.302;14.294;2022-07-24T09:46:57;28.70;99.90
11107;DHT22;5607;48.302;14.294;2022-07-24T09:49:44;28.80;99.90
11107;DHT22;5607;48.302;14.294;2022-07-24T09:52:33;28.60;99.90
11107;DHT22;5607;48.302;14.294;2022-07-24T09:55:23;28.40;99.90
11107;DHT22;5607;48.302;14.294;2022-07-24T09:58:16;28.70;99.90
11107;DHT22;5607;48.302;14.294;2022-07-24T10:04:08;28.80;99.90
11107;DHT22;5607;48.302;14.294;2022-07-24T10:06:56;28.70;99.90
11107;DHT22;5607;48.302;14.294;2022-07-24T10:09:44;28.70;99.90
11107;DHT22;5607;48.302;14.294;2022-07-24T10:12:31;28.90;99.90
11107;DHT22;5607;48.302;14.294;2022-07-24T10:15:17;28.90;99.90
11107;DHT22;5607;48.302;14.294;2022-07-24T10:18:14;28.90;99.90
11107;DHT22;5607;48.302;14.294;2022-07-24T10:21:05;29.00;99.90
11107;DHT22;5607;48.302;14.294;2022-07-24T10:26:43;29.10;99.90
11107;DHT22;5607;48.302;14.294;2022-07-24T10:29:33;29.20;99.90
11107;DHT22;5607;48.302;14.294;2022-07-24T10:32:20;29.20;99.90
11107;DHT22;5607;48.302;14.294;2022-07-24T10:38:07;29.00;99.90
11107;DHT22;5607;48.302;14.294;2022-07-24T10:40:59;29.10;99.90
11107;DHT22;5607;48.302;14.294;2022-07-24T10:46:57;29.20;99.90
11107;DHT22;5607;48.302;14.294;2022-07-24T10:49:47;29.00;99.90
11107;DHT22;5607;48.302;14.294;2022-07-24T10:52:36;29.00;99.90
11107;DHT22;5607;48.302;14.294;2022-07-24T10:55:30;29.10;99.90
11107;DHT22;5607;48.302;14.294;2022-07-24T11:04:30;29.80;99.90
11107;DHT22;5607;48.302;14.294;2022-07-24T11:07:16;29.90;99.90
11107;DHT22;5607;48.302;14.294;2022-07-24T11:10:03;30.00;99.90
11107;DHT22;5607;48.302;14.294;2022-07-24T11:12:53;30.00;99.90
11107;DHT22;5607;48.302;14.294;2022-07-24T11:21:41;29.50;99.90
11107;DHT22;5607;48.302;14.294;2022-07-24T11:24:28;29.60;99.90
11107;DHT22;5607;48.302;14.294;2022-07-24T11:27:17;29.70;99.90
11107;DHT22;5607;48.302;14.294;2022-07-24T11:30:05;29.90;99.90
11107;DHT22;5607;48.302;14.294;2022-07-24T11:32:51;29.70;99.90
11107;DHT22;5607;48.302;14.294;2022-07-24T11:35:38;29.80;99.90
11107;DHT22;5607;48.302;14.294;2022-07-24T11:38:28;30.00;99.90
11107;DHT22;5607;48.302;14.294;2022-07-24T11:41:14;30.10;99.90
11107;DHT22;5607;48.302;14.294;2022-07-24T11:44:01;30.50;99.90
11107;DHT22;5607;48.302;14.294;2022-07-24T11:46:47;30.80;99.90
11107;DHT22;5607;48.302;14.294;2022-07-24T11:49:40;31.00;99.90
11107;DHT22;5607;48.302;14.294;2022-07-24T11:52:27;31.00;99.90
11107;DHT22;5607;48.302;14.294;2022-07-24T11:55:17;31.10;99.90
11107;DHT22;5607;48.302;14.294;2022-07-24T11:58:04;31.00;99.90
11107;DHT22;5607;48.302;14.294;2022-07-24T12:00:50;31.10;99.90
11107;DHT22;5607;48.302;14.294;2022-07-24T12:03:47;31.20;99.90
11107;DHT22;5607;48.302;14.294;2022-07-24T12:06:34;31.20;99.90
11107;DHT22;5607;48.302;14.294;2022-07-24T12:09:21;31.30;99.90
11107;DHT22;5607;48.302;14.294;2022-07-24T12:12:16;31.50;99.90
11107;DHT22;5607;48.302;14.294;2022-07-24T12:18:26;31.90;99.90
11107;DHT22;5607;48.302;14.294;2022-07-24T12:21:13;32.00;99.90
11107;DHT22;5607;48.302;14.294;2022-07-24T12:24:00;31.90;99.90
11107;DHT22;5607;48.302;14.294;2022-07-24T12:26:50;32.10;99.90
11107;DHT22;5607;48.302;14.294;2022-07-24T12:32:54;32.50;99.90
11107;DHT22;5607;48.302;14.294;2022-07-24T12:35:57;32.40;99.90
11107;DHT22;5607;48.302;14.294;2022-07-24T12:38:53;32.30;99.90
11107;DHT22;5607;48.302;14.294;2022-07-24T12:41:45;32.40;99.90
11107;DHT22;5607;48.302;14.294;2022-07-24T12:44:41;32.50;99.90
11107;DHT22;5607;48.302;14.294;2022-07-24T12:47:28;32.50;99.90
11107;DHT22;5607;48.302;14.294;2022-07-24T12:50:16;32.70;99.90
11107;DHT22;5607;48.302;14.294;2022-07-24T12:56:32;33.20;99.90
11107;DHT22;5607;48.302;14.294;2022-07-24T12:59:23;33.40;99.90
11107;DHT22;5607;48.302;14.294;2022-07-24T13:02:32;33.60;99.90
11107;DHT22;5607;48.302;14.294;2022-07-24T13:05:35;33.80;99.90
11107;DHT22;5607;48.302;14.294;2022-07-24T13:08:22;34.10;99.90
11107;DHT22;5607;48.302;14.294;2022-07-24T13:11:08;33.90;99.90
11107;DHT22;5607;48.302;14.294;2022-07-24T13:13:54;34.00;99.90
11107;DHT22;5607;48.302;14.294;2022-07-24T13:16:41;34.10;99.90
11107;DHT22;5607;48.302;14.294;2022-07-24T13:19:28;34.30;99.90
11107;DHT22;5607;48.302;14.294;2022-07-24T13:22:14;34.50;99.90
11107;DHT22;5607;48.302;14.294;2022-07-24T13:28:06;34.70;99.90
11107;DHT22;5607;48.302;14.294;2022-07-24T13:30:53;35.20;99.90
11107;DHT22;5607;48.302;14.294;2022-07-24T13:33:39;35.60;99.90
11107;DHT22;5607;48.302;14.294;2022-07-24T13:36:26;35.80;99.90
11107;DHT22;5607;48.302;14.294;2022-07-24T13:39:12;36.50;99.90
11107;DHT22;5607;48.302;14.294;2022-07-24T13:42:00;37.30;99.90
11107;DHT22;5607;48.302;14.294;2022-07-24T13:44:47;37.80;99.90
11107;DHT22;5607;48.302;14.294;2022-07-24T13:47:34;37.80;99.90
11107;DHT22;5607;48.302;14.294;2022-07-24T13:50:20;38.40;99.90
11107;DHT22;5607;48.302;14.294;2022-07-24T13:53:06;38.90;99.90
11107;DHT22;5607;48.302;14.294;2022-07-24T13:55:52;39.40;99.90
11107;DHT22;5607;48.302;14.294;2022-07-24T13:58:39;39.30;99.90
11107;DHT22;5607;48.302;14.294;2022-07-24T14:01:27;39.40;99.90
11107;DHT22;5607;48.302;14.294;2022-07-24T14:04:14;40.40;99.90
11107;DHT22;5607;48.302;14.294;2022-07-24T14:07:01;42.30;99.90
11107;DHT22;5607;48.302;14.294;2022-07-24T14:10:03;44.30;99.90
11107;DHT22;5607;48.302;14.294;2022-07-24T14:12:50;46.50;99.90
11107;DHT22;5607;48.302;14.294;2022-07-24T14:15:36;47.00;99.90
11107;DHT22;5607;48.302;14.294;2022-07-24T14:18:23;47.70;99.90
11107;DHT22;5607;48.302;14.294;2022-07-24T14:21:10;47.50;99.90
11107;DHT22;5607;48.302;14.294;2022-07-24T14:23:57;47.70;99.90
11107;DHT22;5607;48.302;14.294;2022-07-24T14:26:43;48.50;99.90
11107;DHT22;5607;48.302;14.294;2022-07-24T14:29:31;49.30;99.90
11107;DHT22;5607;48.302;14.294;2022-07-24T14:32:17;49.90;99.90
11107;DHT22;5607;48.302;14.294;2022-07-24T14:35:03;50.60;1.00
11107;DHT22;5607;48.302;14.294;2022-07-24T14:37:52;50.70;99.90
11107;DHT22;5607;48.302;14.294;2022-07-24T14:40:38;49.40;99.90
11107;DHT22;5607;48.302;14.294;2022-07-24T14:43:25;48.70;99.90
11107;DHT22;5607;48.302;14.294;2022-07-24T14:46:12;49.40;99.90
11107;DHT22;5607;48.302;14.294;2022-07-24T14:49:00;49.90;99.90
11107;DHT22;5607;48.302;14.294;2022-07-24T14:51:47;50.00;99.90
11107;DHT22;5607;48.302;14.294;2022-07-24T14:54:33;49.20;1.00
11107;DHT22;5607;48.302;14.294;2022-07-24T14:57:20;48.20;1.00
11107;DHT22;5607;48.302;14.294;2022-07-24T15:00:08;48.10;1.00
11107;DHT22;5607;48.302;14.294;2022-07-24T15:02:54;48.80;1.00
11107;DHT22;5607;48.302;14.294;2022-07-24T15:05:41;49.20;1.00
11107;DHT22;5607;48.302;14.294;2022-07-24T15:08:27;48.80;1.00
11107;DHT22;5607;48.302;14.294;2022-07-24T15:11:14;47.30;1.00
11107;DHT22;5607;48.302;14.294;2022-07-24T15:14:00;46.70;1.00
11107;DHT22;5607;48.302;14.294;2022-07-24T15:16:47;47.40;1.00
11107;DHT22;5607;48.302;14.294;2022-07-24T15:19:33;47.40;1.00
11107;DHT22;5607;48.302;14.294;2022-07-24T15:22:19;48.90;1.00
11107;DHT22;5607;48.302;14.294;2022-07-24T15:25:08;49.70;1.00
11107;DHT22;5607;48.302;14.294;2022-07-24T15:27:55;50.30;1.00
11107;DHT22;5607;48.302;14.294;2022-07-24T15:30:41;49.60;1.00
11107;DHT22;5607;48.302;14.294;2022-07-24T15:33:28;47.40;1.00
11107;DHT22;5607;48.302;14.294;2022-07-24T15:36:14;45.00;1.00
11107;DHT22;5607;48.302;14.294;2022-07-24T15:39:06;43.90;1.00
11107;DHT22;5607;48.302;14.294;2022-07-24T15:41:53;45.40;1.00
11107;DHT22;5607;48.302;14.294;2022-07-24T15:44:39;47.10;1.00
11107;DHT22;5607;48.302;14.294;2022-07-24T15:47:25;48.60;1.00
11107;DHT22;5607;48.302;14.294;2022-07-24T15:50:12;49.30;1.00
11107;DHT22;5607;48.302;14.294;2022-07-24T15:52:58;49.40;1.00
11107;DHT22;5607;48.302;14.294;2022-07-24T15:58:50;45.60;1.00
11107;DHT22;5607;48.302;14.294;2022-07-24T16:01:36;43.10;1.00
11107;DHT22;5607;48.302;14.294;2022-07-24T16:04:23;41.30;1.00
11107;DHT22;5607;48.302;14.294;2022-07-24T16:07:10;39.60;1.00
11107;DHT22;5607;48.302;14.294;2022-07-24T16:09:56;38.30;1.00
11107;DHT22;5607;48.302;14.294;2022-07-24T16:12:45;37.40;1.00
11107;DHT22;5607;48.302;14.294;2022-07-24T16:15:33;36.50;1.00
11107;DHT22;5607;48.302;14.294;2022-07-24T16:18:20;36.20;1.00
11107;DHT22;5607;48.302;14.294;2022-07-24T16:21:07;35.90;1.00
11107;DHT22;5607;48.302;14.294;2022-07-24T16:23:56;35.60;1.00
11107;DHT22;5607;48.302;14.294;2022-07-24T16:26:42;35.30;1.00
11107;DHT22;5607;48.302;14.294;2022-07-24T16:29:28;35.00;1.00
11107;DHT22;5607;48.302;14.294;2022-07-24T16:32:15;34.90;1.00
11107;DHT22;5607;48.302;14.294;2022-07-24T16:35:01;34.80;1.00
11107;DHT22;5607;48.302;14.294;2022-07-24T16:37:48;34.70;1.00
11107;DHT22;5607;48.302;14.294;2022-07-24T16:40:36;34.40;1.00
11107;DHT22;5607;48.302;14.294;2022-07-24T16:43:23;34.30;1.00
11107;DHT22;5607;48.302;14.294;2022-07-24T16:46:09;34.20;1.00
11107;DHT22;5607;48.302;14.294;2022-07-24T16:48:56;34.20;1.00
11107;DHT22;5607;48.302;14.294;2022-07-24T16:51:43;34.10;1.00
11107;DHT22;5607;48.302;14.294;2022-07-24T16:54:29;34.10;1.00
11107;DHT22;5607;48.302;14.294;2022-07-24T17:00:22;33.80;1.00
11107;DHT22;5607;48.302;14.294;2022-07-24T17:03:09;33.80;1.00
11107;DHT22;5607;48.302;14.294;2022-07-24T17:05:55;33.70;1.00
11107;DHT22;5607;48.302;14.294;2022-07-24T17:08:41;33.60;1.00
11107;DHT22;5607;48.302;14.294;2022-07-24T17:11:27;33.40;1.00
11107;DHT22;5607;48.302;14.294;2022-07-24T17:14:16;33.30;1.00
11107;DHT22;5607;48.302;14.294;2022-07-24T17:17:02;33.10;1.00
11107;DHT22;5607;48.302;14.294;2022-07-24T17:19:48;33.10;1.00
11107;DHT22;5607;48.302;14.294;2022-07-24T17:22:35;33.00;1.00
11107;DHT22;5607;48.302;14.294;2022-07-24T17:25:21;33.00;1.00
11107;DHT22;5607;48.302;14.294;2022-07-24T17:28:08;32.90;1.00
11107;DHT22;5607;48.302;14.294;2022-07-24T17:30:55;32.70;1.00
11107;DHT22;5607;48.302;14.294;2022-07-24T17:33:44;32.60;1.00
11107;DHT22;5607;48.302;14.294;2022-07-24T17:36:31;32.40;1.00
11107;DHT22;5607;48.302;14.294;2022-07-24T17:39:18;32.30;1.00
11107;DHT22;5607;48.302;14.294;2022-07-24T17:45:28;32.10;1.00
11107;DHT22;5607;48.302;14.294;2022-07-24T17:48:15;31.90;1.00
11107;DHT22;5607;48.302;14.294;2022-07-24T17:51:02;31.70;1.00
11107;DHT22;5607;48.302;14.294;2022-07-24T17:53:48;31.60;1.00
11107;DHT22;5607;48.302;14.294;2022-07-24T17:56:34;31.40;1.00
11107;DHT22;5607;48.302;14.294;2022-07-24T17:59:21;31.30;1.00
11107;DHT22;5607;48.302;14.294;2022-07-24T18:02:07;31.20;1.00
11107;DHT22;5607;48.302;14.294;2022-07-24T18:04:53;31.20;1.00
11107;DHT22;5607;48.302;14.294;2022-07-24T18:07:41;31.20;1.00
11107;DHT22;5607;48.302;14.294;2022-07-24T18:10:28;31.20;1.00
11107;DHT22;5607;48.302;14.294;2022-07-24T18:13:17;31.10;1.00
11107;DHT22;5607;48.302;14.294;2022-07-24T18:16:04;31.00;1.00
11107;DHT22;5607;48.302;14.294;2022-07-24T18:18:50;30.90;1.00
11107;DHT22;5607;48.302;14.294;2022-07-24T18:21:37;30.80;1.00
11107;DHT22;5607;48.302;14.294;2022-07-24T18:24:23;30.70;1.00
11107;DHT22;5607;48.302;14.294;2022-07-24T18:27:09;30.60;1.00
11107;DHT22;5607;48.302;14.294;2022-07-24T18:29:57;30.50;1.00
11107;DHT22;5607;48.302;14.294;2022-07-24T18:32:43;30.30;1.00
11107;DHT22;5607;48.302;14.294;2022-07-24T18:35:29;30.10;1.00
11107;DHT22;5607;48.302;14.294;2022-07-24T18:38:15;29.90;1.00
11107;DHT22;5607;48.302;14.294;2022-07-24T18:41:02;29.50;1.00
11107;DHT22;5607;48.302;14.294;2022-07-24T18:43:48;29.20;1.00
11107;DHT22;5607;48.302;14.294;2022-07-24T18:46:35;28.90;1.00
11107;DHT22;5607;48.302;14.294;2022-07-24T18:49:21;28.80;1.00
11107;DHT22;5607;48.302;14.294;2022-07-24T18:55:13;28.70;1.00
11107;DHT22;5607;48.302;14.294;2022-07-24T18:58:00;28.60;1.00